sensor_id;sensor_type;location;lat;lon;timestamp;P1;durP1;ratioP1;P2;durP2;ratioP2
50569;SDS011;36525;49.398;7.614;2023-03-20T00:02:17;21.52;;;14.38;;
50569;SDS011;36525;49.398;7.614;2023-03-20T00:04:47;19.23;;;14.50;;
50569;SDS011;36525;49.398;7.614;2023-03-20T00:07:14;17.92;;;13.25;;
50569;SDS011;36525;49.398;7.614;2023-03-20T00:09:42;18.42;;;13.93;;
50569;SDS011;36525;49.398;7.614;2023-03-20T00:12:12;21.65;;;12.75;;
50569;SDS011;36525;49.398;7.614;2023-03-20T00:14:46;18.80;;;13.60;;
50569;SDS011;36525;49.398;7.614;2023-03-20T00:17:14;17.27;;;12.50;;
50569;SDS011;36525;49.398;7.614;2023-03-20T00:19:46;21.70;;;15.10;;
50569;SDS011;36525;49.398;7.614;2023-03-20T00:22:13;25.65;;;14.70;;
50569;SDS011;36525;49.398;7.614;2023-03-20T00:24:40;20.02;;;14.00;;
50569;SDS011;36525;49.398;7.614;2023-03-20T00:27:09;22.48;;;15.23;;
50569;SDS011;36525;49.398;7.614;2023-03-20T00:29:41;21.15;;;13.65;;
50569;SDS011;36525;49.398;7.614;2023-03-20T00:32:13;20.67;;;14.43;;
50569;SDS011;36525;49.398;7.614;2023-03-20T00:34:41;25.33;;;15.73;;
50569;SDS011;36525;49.398;7.614;2023-03-20T00:37:08;20.98;;;14.23;;
50569;SDS011;36525;49.398;7.614;2023-03-20T00:39:37;22.83;;;15.63;;
50569;SDS011;36525;49.398;7.614;2023-03-20T00:42:04;18.45;;;13.45;;
50569;SDS011;36525;49.398;7.614;2023-03-20T00:44:33;24.55;;;16.02;;
50569;SDS011;36525;49.398;7.614;2023-03-20T00:47:11;20.00;;;13.75;;
50569;SDS011;36525;49.398;7.614;2023-03-20T00:49:50;20.23;;;13.35;;
50569;SDS011;36525;49.398;7.614;2023-03-20T00:52:19;17.20;;;13.23;;
50569;SDS011;36525;49.398;7.614;2023-03-20T00:54:48;20.05;;;14.27;;
50569;SDS011;36525;49.398;7.614;2023-03-20T00:57:23;17.10;;;12.90;;
50569;SDS011;36525;49.398;7.614;2023-03-20T01:02:53;21.80;;;15.48;;
50569;SDS011;36525;49.398;7.614;2023-03-20T01:05:24;23.00;;;13.68;;
50569;SDS011;36525;49.398;7.614;2023-03-20T01:07:52;23.13;;;14.45;;
50569;SDS011;36525;49.398;7.614;2023-03-20T01:10:22;19.58;;;14.57;;
50569;SDS011;36525;49.398;7.614;2023-03-20T01:12:53;17.70;;;13.85;;
50569;SDS011;36525;49.398;7.614;2023-03-20T01:15:24;24.58;;;14.07;;
50569;SDS011;36525;49.398;7.614;2023-03-20T01:17:58;22.70;;;14.70;;
50569;SDS011;36525;49.398;7.614;2023-03-20T01:20:26;22.70;;;16.00;;
50569;SDS011;36525;49.398;7.614;2023-03-20T01:22:55;24.17;;;15.45;;
50569;SDS011;36525;49.398;7.614;2023-03-20T01:25:22;26.50;;;18.13;;
50569;SDS011;36525;49.398;7.614;2023-03-20T01:27:51;25.30;;;17.08;;
50569;SDS011;36525;49.398;7.614;2023-03-20T01:30:24;24.60;;;16.45;;
50569;SDS011;36525;49.398;7.614;2023-03-20T01:32:54;29.80;;;17.98;;
50569;SDS011;36525;49.398;7.614;2023-03-20T01:35:23;26.42;;;18.55;;
50569;SDS011;36525;49.398;7.614;2023-03-20T01:37:53;26.58;;;17.08;;
50569;SDS011;36525;49.398;7.614;2023-03-20T01:43:12;23.83;;;17.30;;
50569;SDS011;36525;49.398;7.614;2023-03-20T01:46:01;25.48;;;16.85;;
50569;SDS011;36525;49.398;7.614;2023-03-20T01:51:35;28.90;;;18.27;;
50569;SDS011;36525;49.398;7.614;2023-03-20T01:54:13;25.88;;;18.00;;
50569;SDS011;36525;49.398;7.614;2023-03-20T01:56:46;30.92;;;19.50;;
50569;SDS011;36525;49.398;7.614;2023-03-20T01:59:22;30.23;;;19.58;;
50569;SDS011;36525;49.398;7.614;2023-03-20T02:02:03;24.95;;;16.38;;
50569;SDS011;36525;49.398;7.614;2023-03-20T02:04:33;26.60;;;15.88;;
50569;SDS011;36525;49.398;7.614;2023-03-20T02:07:08;34.83;;;20.92;;
50569;SDS011;36525;49.398;7.614;2023-03-20T02:09:38;29.48;;;18.75;;
50569;SDS011;36525;49.398;7.614;2023-03-20T02:12:05;38.35;;;22.17;;
50569;SDS011;36525;49.398;7.614;2023-03-20T02:14:33;39.42;;;22.88;;
50569;SDS011;36525;49.398;7.614;2023-03-20T02:17:05;31.00;;;18.92;;
50569;SDS011;36525;49.398;7.614;2023-03-20T02:25:36;42.13;;;23.80;;
50569;SDS011;36525;49.398;7.614;2023-03-20T02:35:05;37.72;;;21.95;;
50569;SDS011;36525;49.398;7.614;2023-03-20T02:40:06;31.85;;;20.08;;
50569;SDS011;36525;49.398;7.614;2023-03-20T02:46:34;36.47;;;22.23;;
50569;SDS011;36525;49.398;7.614;2023-03-20T02:58:17;43.58;;;25.20;;
50569;SDS011;36525;49.398;7.614;2023-03-20T03:01:01;45.25;;;24.45;;
50569;SDS011;36525;49.398;7.614;2023-03-20T03:03:38;44.38;;;25.52;;
50569;SDS011;36525;49.398;7.614;2023-03-20T03:09:09;53.58;;;28.33;;
50569;SDS011;36525;49.398;7.614;2023-03-20T03:12:07;49.10;;;28.15;;
50569;SDS011;36525;49.398;7.614;2023-03-20T03:14:54;54.50;;;28.98;;
50569;SDS011;36525;49.398;7.614;2023-03-20T03:17:26;53.13;;;28.88;;
50569;SDS011;36525;49.398;7.614;2023-03-20T03:20:01;62.55;;;31.45;;
50569;SDS011;36525;49.398;7.614;2023-03-20T03:22:33;58.83;;;31.50;;
50569;SDS011;36525;49.398;7.614;2023-03-20T03:25:01;69.38;;;32.53;;
50569;SDS011;36525;49.398;7.614;2023-03-20T03:27:36;64.80;;;32.20;;
50569;SDS011;36525;49.398;7.614;2023-03-20T03:30:10;74.55;;;34.97;;
50569;SDS011;36525;49.398;7.614;2023-03-20T03:32:45;88.97;;;37.72;;
50569;SDS011;36525;49.398;7.614;2023-03-20T03:35:24;90.60;;;36.95;;
50569;SDS011;36525;49.398;7.614;2023-03-20T03:37:57;84.07;;;37.00;;
50569;SDS011;36525;49.398;7.614;2023-03-20T03:40:55;91.30;;;34.88;;
50569;SDS011;36525;49.398;7.614;2023-03-20T03:43:40;83.97;;;33.15;;
50569;SDS011;36525;49.398;7.614;2023-03-20T03:46:18;89.43;;;37.65;;
50569;SDS011;36525;49.398;7.614;2023-03-20T03:49:23;92.90;;;34.83;;
50569;SDS011;36525;49.398;7.614;2023-03-20T03:51:57;122.70;;;40.35;;
50569;SDS011;36525;49.398;7.614;2023-03-20T03:54:42;122.97;;;42.55;;
50569;SDS011;36525;49.398;7.614;2023-03-20T04:00:16;116.03;;;38.53;;
50569;SDS011;36525;49.398;7.614;2023-03-20T04:02:48;136.70;;;40.22;;
50569;SDS011;36525;49.398;7.614;2023-03-20T04:05:20;109.65;;;39.55;;
50569;SDS011;36525;49.398;7.614;2023-03-20T04:07:51;121.68;;;39.00;;
50569;SDS011;36525;49.398;7.614;2023-03-20T04:10:21;167.68;;;42.90;;
50569;SDS011;36525;49.398;7.614;2023-03-20T04:12:48;146.43;;;40.72;;
50569;SDS011;36525;49.398;7.614;2023-03-20T04:15:15;167.15;;;45.22;;
50569;SDS011;36525;49.398;7.614;2023-03-20T04:17:43;136.43;;;42.08;;
50569;SDS011;36525;49.398;7.614;2023-03-20T04:20:10;196.77;;;49.90;;
50569;SDS011;36525;49.398;7.614;2023-03-20T04:22:39;134.65;;;41.35;;
50569;SDS011;36525;49.398;7.614;2023-03-20T04:25:07;149.90;;;43.85;;
50569;SDS011;36525;49.398;7.614;2023-03-20T04:27:42;142.77;;;41.47;;
50569;SDS011;36525;49.398;7.614;2023-03-20T04:30:09;126.78;;;39.40;;
50569;SDS011;36525;49.398;7.614;2023-03-20T04:32:38;127.15;;;40.13;;
50569;SDS011;36525;49.398;7.614;2023-03-20T04:35:05;139.98;;;39.85;;
50569;SDS011;36525;49.398;7.614;2023-03-20T04:37:33;150.05;;;40.05;;
50569;SDS011;36525;49.398;7.614;2023-03-20T04:40:00;174.80;;;45.50;;
50569;SDS011;36525;49.398;7.614;2023-03-20T04:42:27;172.25;;;45.90;;
50569;SDS011;36525;49.398;7.614;2023-03-20T04:44:54;118.70;;;35.83;;
50569;SDS011;36525;49.398;7.614;2023-03-20T04:47:21;147.68;;;41.45;;
50569;SDS011;36525;49.398;7.614;2023-03-20T04:49:48;138.75;;;39.83;;
50569;SDS011;36525;49.398;7.614;2023-03-20T04:52:16;113.20;;;38.58;;
50569;SDS011;36525;49.398;7.614;2023-03-20T04:54:43;173.55;;;43.38;;
50569;SDS011;36525;49.398;7.614;2023-03-20T04:57:10;216.90;;;45.65;;
50569;SDS011;36525;49.398;7.614;2023-03-20T04:59:37;191.45;;;44.13;;
50569;SDS011;36525;49.398;7.614;2023-03-20T05:02:05;200.25;;;49.05;;
50569;SDS011;36525;49.398;7.614;2023-03-20T05:04:32;157.50;;;44.20;;
50569;SDS011;36525;49.398;7.614;2023-03-20T05:07:00;248.88;;;46.08;;
50569;SDS011;36525;49.398;7.614;2023-03-20T05:09:27;188.73;;;39.80;;
50569;SDS011;36525;49.398;7.614;2023-03-20T05:11:54;272.45;;;48.92;;
50569;SDS011;36525;49.398;7.614;2023-03-20T05:14:21;297.45;;;50.17;;
50569;SDS011;36525;49.398;7.614;2023-03-20T05:16:48;290.20;;;49.00;;
50569;SDS011;36525;49.398;7.614;2023-03-20T05:19:16;347.75;;;55.70;;
50569;SDS011;36525;49.398;7.614;2023-03-20T05:21:43;235.93;;;47.10;;
50569;SDS011;36525;49.398;7.614;2023-03-20T05:24:13;199.13;;;37.85;;
50569;SDS011;36525;49.398;7.614;2023-03-20T05:26:40;383.55;;;55.83;;
50569;SDS011;36525;49.398;7.614;2023-03-20T05:29:08;286.67;;;44.33;;
50569;SDS011;36525;49.398;7.614;2023-03-20T05:31:35;320.40;;;52.53;;
50569;SDS011;36525;49.398;7.614;2023-03-20T05:34:02;270.77;;;50.67;;
50569;SDS011;36525;49.398;7.614;2023-03-20T05:36:30;219.57;;;43.85;;
50569;SDS011;36525;49.398;7.614;2023-03-20T05:38:57;271.35;;;48.33;;
50569;SDS011;36525;49.398;7.614;2023-03-20T05:41:24;275.55;;;45.65;;
50569;SDS011;36525;49.398;7.614;2023-03-20T05:43:52;368.33;;;55.95;;
50569;SDS011;36525;49.398;7.614;2023-03-20T05:46:19;274.45;;;51.20;;
50569;SDS011;36525;49.398;7.614;2023-03-20T05:48:48;332.27;;;57.78;;
50569;SDS011;36525;49.398;7.614;2023-03-20T05:51:15;253.20;;;46.28;;
50569;SDS011;36525;49.398;7.614;2023-03-20T05:53:42;254.13;;;45.75;;
50569;SDS011;36525;49.398;7.614;2023-03-20T05:56:09;305.77;;;51.97;;
50569;SDS011;36525;49.398;7.614;2023-03-20T05:58:36;220.07;;;41.58;;
50569;SDS011;36525;49.398;7.614;2023-03-20T06:01:03;229.48;;;46.10;;
50569;SDS011;36525;49.398;7.614;2023-03-20T06:03:31;194.85;;;43.83;;
50569;SDS011;36525;49.398;7.614;2023-03-20T06:05:58;255.35;;;49.65;;
50569;SDS011;36525;49.398;7.614;2023-03-20T06:08:25;257.83;;;48.40;;
50569;SDS011;36525;49.398;7.614;2023-03-20T06:10:52;212.07;;;43.42;;
50569;SDS011;36525;49.398;7.614;2023-03-20T06:13:19;250.70;;;51.83;;
50569;SDS011;36525;49.398;7.614;2023-03-20T06:15:47;199.57;;;46.35;;
50569;SDS011;36525;49.398;7.614;2023-03-20T06:18:14;205.40;;;49.42;;
50569;SDS011;36525;49.398;7.614;2023-03-20T06:20:41;137.20;;;42.45;;
50569;SDS011;36525;49.398;7.614;2023-03-20T06:23:08;187.55;;;45.45;;
50569;SDS011;36525;49.398;7.614;2023-03-20T06:25:35;165.02;;;45.80;;
50569;SDS011;36525;49.398;7.614;2023-03-20T06:28:03;194.43;;;45.60;;
50569;SDS011;36525;49.398;7.614;2023-03-20T06:30:30;168.43;;;43.17;;
50569;SDS011;36525;49.398;7.614;2023-03-20T06:32:57;137.93;;;40.80;;
50569;SDS011;36525;49.398;7.614;2023-03-20T06:35:24;167.27;;;43.72;;
50569;SDS011;36525;49.398;7.614;2023-03-20T06:37:57;161.63;;;45.47;;
50569;SDS011;36525;49.398;7.614;2023-03-20T06:40:24;117.72;;;36.83;;
50569;SDS011;36525;49.398;7.614;2023-03-20T06:42:55;159.27;;;44.38;;
50569;SDS011;36525;49.398;7.614;2023-03-20T06:45:22;116.55;;;39.08;;
50569;SDS011;36525;49.398;7.614;2023-03-20T06:47:51;84.65;;;31.85;;
50569;SDS011;36525;49.398;7.614;2023-03-20T06:50:18;98.05;;;36.28;;
50569;SDS011;36525;49.398;7.614;2023-03-20T06:52:46;73.25;;;34.00;;
50569;SDS011;36525;49.398;7.614;2023-03-20T06:55:13;90.15;;;37.38;;
50569;SDS011;36525;49.398;7.614;2023-03-20T06:57:40;73.57;;;32.92;;
50569;SDS011;36525;49.398;7.614;2023-03-20T07:00:08;79.20;;;33.38;;
50569;SDS011;36525;49.398;7.614;2023-03-20T07:02:36;68.43;;;32.42;;
50569;SDS011;36525;49.398;7.614;2023-03-20T07:05:03;79.63;;;35.80;;
50569;SDS011;36525;49.398;7.614;2023-03-20T07:07:31;79.90;;;35.85;;
50569;SDS011;36525;49.398;7.614;2023-03-20T07:09:58;76.55;;;35.25;;
50569;SDS011;36525;49.398;7.614;2023-03-20T07:12:26;58.28;;;30.92;;
50569;SDS011;36525;49.398;7.614;2023-03-20T07:14:54;51.65;;;28.90;;
50569;SDS011;36525;49.398;7.614;2023-03-20T07:17:21;51.92;;;28.98;;
50569;SDS011;36525;49.398;7.614;2023-03-20T07:19:48;66.60;;;33.45;;
50569;SDS011;36525;49.398;7.614;2023-03-20T07:22:20;56.85;;;30.40;;
50569;SDS011;36525;49.398;7.614;2023-03-20T07:25:12;76.93;;;39.15;;
50569;SDS011;36525;49.398;7.614;2023-03-20T07:27:39;76.15;;;36.85;;
50569;SDS011;36525;49.398;7.614;2023-03-20T07:30:07;68.40;;;37.35;;
50569;SDS011;36525;49.398;7.614;2023-03-20T07:32:35;77.47;;;40.00;;
50569;SDS011;36525;49.398;7.614;2023-03-20T07:35:06;79.07;;;39.38;;
50569;SDS011;36525;49.398;7.614;2023-03-20T07:37:34;69.07;;;35.85;;
50569;SDS011;36525;49.398;7.614;2023-03-20T07:40:02;52.53;;;31.55;;
50569;SDS011;36525;49.398;7.614;2023-03-20T07:42:30;65.63;;;35.90;;
50569;SDS011;36525;49.398;7.614;2023-03-20T07:44:57;66.38;;;38.30;;
50569;SDS011;36525;49.398;7.614;2023-03-20T07:47:24;67.45;;;35.75;;
50569;SDS011;36525;49.398;7.614;2023-03-20T07:49:51;75.13;;;40.40;;
50569;SDS011;36525;49.398;7.614;2023-03-20T07:52:18;67.72;;;36.63;;
50569;SDS011;36525;49.398;7.614;2023-03-20T07:54:48;63.05;;;33.17;;
50569;SDS011;36525;49.398;7.614;2023-03-20T07:57:15;61.63;;;29.52;;
50569;SDS011;36525;49.398;7.614;2023-03-20T07:59:43;54.90;;;28.80;;
50569;SDS011;36525;49.398;7.614;2023-03-20T08:02:14;45.88;;;25.83;;
50569;SDS011;36525;49.398;7.614;2023-03-20T08:04:43;60.35;;;33.05;;
50569;SDS011;36525;49.398;7.614;2023-03-20T08:07:13;41.97;;;24.80;;
50569;SDS011;36525;49.398;7.614;2023-03-20T08:09:40;48.83;;;27.52;;
50569;SDS011;36525;49.398;7.614;2023-03-20T08:12:07;49.55;;;26.35;;
50569;SDS011;36525;49.398;7.614;2023-03-20T08:14:34;49.55;;;25.58;;
50569;SDS011;36525;49.398;7.614;2023-03-20T08:17:03;40.88;;;23.23;;
50569;SDS011;36525;49.398;7.614;2023-03-20T08:19:41;40.35;;;23.10;;
50569;SDS011;36525;49.398;7.614;2023-03-20T08:22:09;38.45;;;22.90;;
50569;SDS011;36525;49.398;7.614;2023-03-20T08:24:36;37.63;;;22.70;;
50569;SDS011;36525;49.398;7.614;2023-03-20T08:27:03;47.35;;;27.92;;
50569;SDS011;36525;49.398;7.614;2023-03-20T08:29:31;47.58;;;27.58;;
50569;SDS011;36525;49.398;7.614;2023-03-20T08:31:58;42.22;;;24.55;;
50569;SDS011;36525;49.398;7.614;2023-03-20T08:34:25;39.15;;;22.35;;
50569;SDS011;36525;49.398;7.614;2023-03-20T08:36:53;38.50;;;23.30;;
50569;SDS011;36525;49.398;7.614;2023-03-20T08:39:20;38.90;;;24.25;;
50569;SDS011;36525;49.398;7.614;2023-03-20T08:41:47;34.80;;;21.67;;
50569;SDS011;36525;49.398;7.614;2023-03-20T08:44:15;33.88;;;21.60;;
50569;SDS011;36525;49.398;7.614;2023-03-20T08:46:42;36.70;;;19.33;;
50569;SDS011;36525;49.398;7.614;2023-03-20T08:49:11;34.40;;;21.50;;
50569;SDS011;36525;49.398;7.614;2023-03-20T08:51:39;29.15;;;18.13;;
50569;SDS011;36525;49.398;7.614;2023-03-20T08:54:06;24.48;;;15.77;;
50569;SDS011;36525;49.398;7.614;2023-03-20T08:56:33;25.65;;;17.23;;
50569;SDS011;36525;49.398;7.614;2023-03-20T08:59:00;27.23;;;16.95;;
50569;SDS011;36525;49.398;7.614;2023-03-20T09:01:27;23.38;;;14.50;;
50569;SDS011;36525;49.398;7.614;2023-03-20T09:04:13;26.05;;;14.48;;
50569;SDS011;36525;49.398;7.614;2023-03-20T09:06:40;22.85;;;14.65;;
50569;SDS011;36525;49.398;7.614;2023-03-20T09:09:08;19.90;;;11.50;;
50569;SDS011;36525;49.398;7.614;2023-03-20T09:11:35;18.48;;;12.35;;
50569;SDS011;36525;49.398;7.614;2023-03-20T09:14:05;18.08;;;13.02;;
50569;SDS011;36525;49.398;7.614;2023-03-20T09:16:32;21.33;;;13.60;;
50569;SDS011;36525;49.398;7.614;2023-03-20T09:18:59;18.48;;;13.13;;
50569;SDS011;36525;49.398;7.614;2023-03-20T09:21:27;20.63;;;13.10;;
50569;SDS011;36525;49.398;7.614;2023-03-20T09:23:54;18.05;;;11.98;;
50569;SDS011;36525;49.398;7.614;2023-03-20T09:26:21;21.10;;;12.90;;
50569;SDS011;36525;49.398;7.614;2023-03-20T09:28:48;19.42;;;12.40;;
50569;SDS011;36525;49.398;7.614;2023-03-20T09:31:15;15.57;;;11.15;;
50569;SDS011;36525;49.398;7.614;2023-03-20T09:33:42;17.73;;;12.13;;
50569;SDS011;36525;49.398;7.614;2023-03-20T09:36:09;17.48;;;12.95;;
50569;SDS011;36525;49.398;7.614;2023-03-20T09:38:37;15.77;;;11.05;;
50569;SDS011;36525;49.398;7.614;2023-03-20T09:41:12;14.40;;;10.57;;
50569;SDS011;36525;49.398;7.614;2023-03-20T09:55:14;14.90;;;10.00;;
50569;SDS011;36525;49.398;7.614;2023-03-20T09:57:48;14.15;;;7.88;;
50569;SDS011;36525;49.398;7.614;2023-03-20T10:00:49;12.02;;;9.18;;
50569;SDS011;36525;49.398;7.614;2023-03-20T10:03:20;12.52;;;8.30;;
50569;SDS011;36525;49.398;7.614;2023-03-20T10:05:55;14.55;;;9.05;;
50569;SDS011;36525;49.398;7.614;2023-03-20T10:08:35;15.07;;;9.55;;
50569;SDS011;36525;49.398;7.614;2023-03-20T10:11:12;13.93;;;7.78;;
50569;SDS011;36525;49.398;7.614;2023-03-20T10:14:00;12.35;;;7.88;;
50569;SDS011;36525;49.398;7.614;2023-03-20T10:16:57;13.55;;;7.18;;
50569;SDS011;36525;49.398;7.614;2023-03-20T10:19:47;12.27;;;7.40;;
50569;SDS011;36525;49.398;7.614;2023-03-20T10:22:22;10.48;;;6.78;;
50569;SDS011;36525;49.398;7.614;2023-03-20T10:25:13;11.18;;;6.78;;
50569;SDS011;36525;49.398;7.614;2023-03-20T10:27:59;10.43;;;6.20;;
50569;SDS011;36525;49.398;7.614;2023-03-20T10:41:20;9.98;;;6.88;;
50569;SDS011;36525;49.398;7.614;2023-03-20T10:43:55;10.27;;;6.60;;
50569;SDS011;36525;49.398;7.614;2023-03-20T10:46:29;12.00;;;6.00;;
50569;SDS011;36525;49.398;7.614;2023-03-20T10:49:21;9.15;;;5.50;;
50569;SDS011;36525;49.398;7.614;2023-03-20T10:52:18;10.93;;;5.80;;
50569;SDS011;36525;49.398;7.614;2023-03-20T10:54:54;10.70;;;5.63;;
50569;SDS011;36525;49.398;7.614;2023-03-20T10:57:28;7.70;;;4.43;;
50569;SDS011;36525;49.398;7.614;2023-03-20T10:59:58;6.90;;;3.70;;
50569;SDS011;36525;49.398;7.614;2023-03-20T11:02:29;7.78;;;3.75;;
50569;SDS011;36525;49.398;7.614;2023-03-20T11:05:20;8.23;;;3.88;;
50569;SDS011;36525;49.398;7.614;2023-03-20T11:08:04;6.30;;;3.83;;
50569;SDS011;36525;49.398;7.614;2023-03-20T11:10:36;6.00;;;3.50;;
50569;SDS011;36525;49.398;7.614;2023-03-20T11:13:15;8.90;;;4.10;;
50569;SDS011;36525;49.398;7.614;2023-03-20T11:15:54;6.38;;;3.30;;
50569;SDS011;36525;49.398;7.614;2023-03-20T11:18:23;8.07;;;3.35;;
50569;SDS011;36525;49.398;7.614;2023-03-20T11:20:53;9.20;;;3.50;;
50569;SDS011;36525;49.398;7.614;2023-03-20T11:23:32;9.40;;;3.88;;
50569;SDS011;36525;49.398;7.614;2023-03-20T11:26:00;6.60;;;4.03;;
50569;SDS011;36525;49.398;7.614;2023-03-20T11:28:33;9.00;;;4.30;;
50569;SDS011;36525;49.398;7.614;2023-03-20T11:31:04;8.00;;;4.22;;
50569;SDS011;36525;49.398;7.614;2023-03-20T11:33:36;7.20;;;3.95;;
50569;SDS011;36525;49.398;7.614;2023-03-20T11:37:01;7.57;;;3.75;;
50569;SDS011;36525;49.398;7.614;2023-03-20T11:39:36;7.43;;;4.05;;
50569;SDS011;36525;49.398;7.614;2023-03-20T11:42:18;7.97;;;3.55;;
50569;SDS011;36525;49.398;7.614;2023-03-20T11:44:57;8.88;;;3.92;;
50569;SDS011;36525;49.398;7.614;2023-03-20T11:47:27;9.52;;;3.83;;
50569;SDS011;36525;49.398;7.614;2023-03-20T11:50:00;8.70;;;4.38;;
50569;SDS011;36525;49.398;7.614;2023-03-20T11:52:33;8.90;;;4.57;;
50569;SDS011;36525;49.398;7.614;2023-03-20T11:55:06;9.70;;;4.75;;
50569;SDS011;36525;49.398;7.614;2023-03-20T11:58:00;10.23;;;5.00;;
50569;SDS011;36525;49.398;7.614;2023-03-20T12:00:37;10.65;;;4.82;;
50569;SDS011;36525;49.398;7.614;2023-03-20T12:03:51;9.32;;;5.00;;
50569;SDS011;36525;49.398;7.614;2023-03-20T12:06:22;7.82;;;4.40;;
50569;SDS011;36525;49.398;7.614;2023-03-20T12:08:54;7.53;;;4.47;;
50569;SDS011;36525;49.398;7.614;2023-03-20T12:14:33;9.43;;;4.80;;
50569;SDS011;36525;49.398;7.614;2023-03-20T12:26:47;11.00;;;5.38;;
50569;SDS011;36525;49.398;7.614;2023-03-20T12:29:39;10.18;;;6.07;;
50569;SDS011;36525;49.398;7.614;2023-03-20T12:32:19;11.32;;;5.00;;
50569;SDS011;36525;49.398;7.614;2023-03-20T12:35:29;12.10;;;5.07;;
50569;SDS011;36525;49.398;7.614;2023-03-20T12:38:01;10.13;;;5.03;;
50569;SDS011;36525;49.398;7.614;2023-03-20T12:40:40;14.30;;;5.85;;
50569;SDS011;36525;49.398;7.614;2023-03-20T12:43:13;9.27;;;4.82;;
50569;SDS011;36525;49.398;7.614;2023-03-20T12:45:46;11.15;;;5.60;;
50569;SDS011;36525;49.398;7.614;2023-03-20T12:48:49;8.07;;;3.80;;
50569;SDS011;36525;49.398;7.614;2023-03-20T12:51:34;8.07;;;4.45;;
50569;SDS011;36525;49.398;7.614;2023-03-20T12:59:32;8.23;;;4.15;;
50569;SDS011;36525;49.398;7.614;2023-03-20T13:10:36;7.13;;;3.08;;
50569;SDS011;36525;49.398;7.614;2023-03-20T13:16:01;9.13;;;3.40;;
50569;SDS011;36525;49.398;7.614;2023-03-20T13:21:32;6.25;;;2.40;;
50569;SDS011;36525;49.398;7.614;2023-03-20T13:24:17;7.43;;;2.65;;
50569;SDS011;36525;49.398;7.614;2023-03-20T13:30:20;6.65;;;3.92;;
50569;SDS011;36525;49.398;7.614;2023-03-20T13:33:00;7.28;;;3.50;;
50569;SDS011;36525;49.398;7.614;2023-03-20T13:41:52;8.20;;;2.78;;
50569;SDS011;36525;49.398;7.614;2023-03-20T13:44:21;6.55;;;3.00;;
50569;SDS011;36525;49.398;7.614;2023-03-20T13:46:54;5.88;;;2.40;;
50569;SDS011;36525;49.398;7.614;2023-03-20T13:54:45;4.72;;;2.53;;
50569;SDS011;36525;49.398;7.614;2023-03-20T13:57:59;5.57;;;2.40;;
50569;SDS011;36525;49.398;7.614;2023-03-20T14:05:54;5.28;;;2.53;;
50569;SDS011;36525;49.398;7.614;2023-03-20T14:08:22;7.53;;;2.65;;
50569;SDS011;36525;49.398;7.614;2023-03-20T14:10:54;7.50;;;2.50;;
50569;SDS011;36525;49.398;7.614;2023-03-20T14:13:56;7.85;;;2.20;;
50569;SDS011;36525;49.398;7.614;2023-03-20T14:16:33;6.95;;;2.20;;
50569;SDS011;36525;49.398;7.614;2023-03-20T14:19:44;4.50;;;2.40;;
50569;SDS011;36525;49.398;7.614;2023-03-20T14:21:54;7.35;;;2.05;;
50569;SDS011;36525;49.398;7.614;2023-03-20T14:24:23;5.45;;;2.10;;
50569;SDS011;36525;49.398;7.614;2023-03-20T14:26:56;5.68;;;2.50;;
50569;SDS011;36525;49.398;7.614;2023-03-20T14:37:57;6.55;;;2.35;;
50569;SDS011;36525;49.398;7.614;2023-03-20T14:43:51;7.90;;;2.63;;
50569;SDS011;36525;49.398;7.614;2023-03-20T14:46:55;7.50;;;2.20;;
50569;SDS011;36525;49.398;7.614;2023-03-20T14:52:11;7.05;;;2.17;;
50569;SDS011;36525;49.398;7.614;2023-03-20T14:57:56;5.03;;;1.77;;
50569;SDS011;36525;49.398;7.614;2023-03-20T15:05:35;3.85;;;1.52;;
50569;SDS011;36525;49.398;7.614;2023-03-20T15:10:44;5.65;;;1.65;;
50569;SDS011;36525;49.398;7.614;2023-03-20T15:13:35;7.00;;;1.80;;
50569;SDS011;36525;49.398;7.614;2023-03-20T15:16:10;4.50;;;1.67;;
50569;SDS011;36525;49.398;7.614;2023-03-20T15:18:44;8.70;;;1.60;;
50569;SDS011;36525;49.398;7.614;2023-03-20T15:21:19;4.88;;;1.35;;
50569;SDS011;36525;49.398;7.614;2023-03-20T15:24:04;5.43;;;1.70;;
50569;SDS011;36525;49.398;7.614;2023-03-20T15:26:32;6.95;;;1.83;;
50569;SDS011;36525;49.398;7.614;2023-03-20T15:29:02;6.80;;;1.90;;
50569;SDS011;36525;49.398;7.614;2023-03-20T15:31:33;4.68;;;1.35;;
50569;SDS011;36525;49.398;7.614;2023-03-20T15:34:07;7.28;;;1.90;;
50569;SDS011;36525;49.398;7.614;2023-03-20T15:36:43;5.13;;;1.92;;
50569;SDS011;36525;49.398;7.614;2023-03-20T15:39:13;4.38;;;1.45;;
50569;SDS011;36525;49.398;7.614;2023-03-20T15:41:45;4.28;;;1.70;;
50569;SDS011;36525;49.398;7.614;2023-03-20T15:47:20;6.18;;;1.92;;
50569;SDS011;36525;49.398;7.614;2023-03-20T15:52:19;7.93;;;2.03;;
50569;SDS011;36525;49.398;7.614;2023-03-20T15:54:57;5.18;;;1.92;;
50569;SDS011;36525;49.398;7.614;2023-03-20T15:57:30;3.63;;;1.38;;
50569;SDS011;36525;49.398;7.614;2023-03-20T16:00:04;7.25;;;1.80;;
50569;SDS011;36525;49.398;7.614;2023-03-20T16:02:43;7.57;;;2.10;;
50569;SDS011;36525;49.398;7.614;2023-03-20T16:05:14;6.00;;;1.85;;
50569;SDS011;36525;49.398;7.614;2023-03-20T16:07:43;5.10;;;1.70;;
50569;SDS011;36525;49.398;7.614;2023-03-20T16:12:48;6.25;;;2.30;;
50569;SDS011;36525;49.398;7.614;2023-03-20T16:15:20;8.50;;;3.05;;
50569;SDS011;36525;49.398;7.614;2023-03-20T16:17:54;6.85;;;1.95;;
50569;SDS011;36525;49.398;7.614;2023-03-20T16:20:24;11.00;;;2.58;;
50569;SDS011;36525;49.398;7.614;2023-03-20T16:22:58;5.50;;;2.63;;
50569;SDS011;36525;49.398;7.614;2023-03-20T16:25:32;7.70;;;3.58;;
50569;SDS011;36525;49.398;7.614;2023-03-20T16:28:02;10.18;;;3.20;;
50569;SDS011;36525;49.398;7.614;2023-03-20T16:30:34;7.55;;;2.58;;
50569;SDS011;36525;49.398;7.614;2023-03-20T16:33:10;7.63;;;2.60;;
50569;SDS011;36525;49.398;7.614;2023-03-20T16:35:46;8.25;;;2.28;;
50569;SDS011;36525;49.398;7.614;2023-03-20T16:40:47;7.18;;;2.60;;
50569;SDS011;36525;49.398;7.614;2023-03-20T16:43:29;6.63;;;2.50;;
50569;SDS011;36525;49.398;7.614;2023-03-20T16:46:01;5.15;;;2.25;;
50569;SDS011;36525;49.398;7.614;2023-03-20T16:48:32;7.95;;;2.70;;
50569;SDS011;36525;49.398;7.614;2023-03-20T16:53:57;6.63;;;2.88;;
50569;SDS011;36525;49.398;7.614;2023-03-20T16:56:33;8.43;;;2.30;;
50569;SDS011;36525;49.398;7.614;2023-03-20T16:59:06;7.03;;;2.42;;
50569;SDS011;36525;49.398;7.614;2023-03-20T17:01:40;9.27;;;2.60;;
50569;SDS011;36525;49.398;7.614;2023-03-20T17:04:27;6.70;;;2.85;;
50569;SDS011;36525;49.398;7.614;2023-03-20T17:07:05;7.95;;;2.83;;
50569;SDS011;36525;49.398;7.614;2023-03-20T17:09:53;5.40;;;2.85;;
50569;SDS011;36525;49.398;7.614;2023-03-20T17:12:26;7.45;;;3.50;;
50569;SDS011;36525;49.398;7.614;2023-03-20T17:14:57;6.88;;;3.10;;
50569;SDS011;36525;49.398;7.614;2023-03-20T17:17:24;8.95;;;3.70;;
50569;SDS011;36525;49.398;7.614;2023-03-20T17:19:52;8.73;;;3.95;;
50569;SDS011;36525;49.398;7.614;2023-03-20T17:22:22;6.88;;;3.00;;
50569;SDS011;36525;49.398;7.614;2023-03-20T17:24:52;9.20;;;3.17;;
50569;SDS011;36525;49.398;7.614;2023-03-20T17:27:19;13.40;;;4.07;;
50569;SDS011;36525;49.398;7.614;2023-03-20T17:29:47;13.20;;;3.97;;
50569;SDS011;36525;49.398;7.614;2023-03-20T17:32:15;7.97;;;3.53;;
50569;SDS011;36525;49.398;7.614;2023-03-20T17:34:49;8.73;;;3.92;;
50569;SDS011;36525;49.398;7.614;2023-03-20T17:37:23;7.03;;;3.13;;
50569;SDS011;36525;49.398;7.614;2023-03-20T17:39:55;7.35;;;2.88;;